sensor_id;sensor_type;location;lat;lon;timestamp;P1;durP1;ratioP1;P2;durP2;ratioP2
75916;SDS011;64595;50.148;14.334;2023-04-25T00:01:06;5.35;;;3.67;;
75916;SDS011;64595;50.148;14.334;2023-04-25T00:03:32;5.22;;;3.13;;
75916;SDS011;64595;50.148;14.334;2023-04-25T00:05:58;5.25;;;3.38;;
75916;SDS011;64595;50.148;14.334;2023-04-25T00:08:24;7.55;;;4.65;;
75916;SDS011;64595;50.148;14.334;2023-04-25T00:10:51;5.70;;;3.95;;
75916;SDS011;64595;50.148;14.334;2023-04-25T00:13:16;6.10;;;4.00;;
75916;SDS011;64595;50.148;14.334;2023-04-25T00:15:42;14.98;;;8.55;;
75916;SDS011;64595;50.148;14.334;2023-04-25T00:18:07;12.65;;;6.75;;
75916;SDS011;64595;50.148;14.334;2023-04-25T00:20:33;5.30;;;3.50;;
75916;SDS011;64595;50.148;14.334;2023-04-25T00:22:58;9.88;;;5.63;;
75916;SDS011;64595;50.148;14.334;2023-04-25T00:25:24;7.25;;;4.30;;
75916;SDS011;64595;50.148;14.334;2023-04-25T00:27:51;11.32;;;5.97;;
75916;SDS011;64595;50.148;14.334;2023-04-25T00:30:17;5.78;;;4.05;;
75916;SDS011;64595;50.148;14.334;2023-04-25T00:32:42;6.32;;;3.75;;
75916;SDS011;64595;50.148;14.334;2023-04-25T00:35:08;7.18;;;3.33;;
75916;SDS011;64595;50.148;14.334;2023-04-25T00:37:34;7.63;;;3.70;;
75916;SDS011;64595;50.148;14.334;2023-04-25T00:40:00;11.75;;;5.82;;
75916;SDS011;64595;50.148;14.334;2023-04-25T00:42:25;10.05;;;5.13;;
75916;SDS011;64595;50.148;14.334;2023-04-25T00:44:52;11.05;;;6.40;;
75916;SDS011;64595;50.148;14.334;2023-04-25T00:47:18;6.00;;;4.35;;
75916;SDS011;64595;50.148;14.334;2023-04-25T00:49:43;17.73;;;8.50;;
75916;SDS011;64595;50.148;14.334;2023-04-25T00:52:09;6.82;;;4.45;;
75916;SDS011;64595;50.148;14.334;2023-04-25T00:54:35;6.18;;;3.80;;
75916;SDS011;64595;50.148;14.334;2023-04-25T00:57:00;9.77;;;6.47;;
75916;SDS011;64595;50.148;14.334;2023-04-25T00:59:26;6.32;;;3.70;;
75916;SDS011;64595;50.148;14.334;2023-04-25T01:01:54;6.22;;;4.18;;
75916;SDS011;64595;50.148;14.334;2023-04-25T01:04:19;6.28;;;4.35;;
75916;SDS011;64595;50.148;14.334;2023-04-25T01:06:45;12.65;;;5.65;;
75916;SDS011;64595;50.148;14.334;2023-04-25T01:09:11;9.40;;;5.18;;
75916;SDS011;64595;50.148;14.334;2023-04-25T01:11:36;7.68;;;4.95;;
75916;SDS011;64595;50.148;14.334;2023-04-25T01:14:02;9.15;;;5.53;;
75916;SDS011;64595;50.148;14.334;2023-04-25T01:16:27;8.57;;;4.90;;
75916;SDS011;64595;50.148;14.334;2023-04-25T01:18:54;14.75;;;7.15;;
75916;SDS011;64595;50.148;14.334;2023-04-25T01:21:22;8.88;;;5.03;;
75916;SDS011;64595;50.148;14.334;2023-04-25T01:23:47;8.70;;;4.97;;
75916;SDS011;64595;50.148;14.334;2023-04-25T01:26:13;8.80;;;4.85;;
75916;SDS011;64595;50.148;14.334;2023-04-25T01:28:39;6.88;;;4.40;;
75916;SDS011;64595;50.148;14.334;2023-04-25T01:31:05;14.68;;;5.22;;
75916;SDS011;64595;50.148;14.334;2023-04-25T01:33:31;11.55;;;6.25;;
75916;SDS011;64595;50.148;14.334;2023-04-25T01:35:56;6.95;;;4.30;;
75916;SDS011;64595;50.148;14.334;2023-04-25T01:38:23;8.43;;;4.63;;
75916;SDS011;64595;50.148;14.334;2023-04-25T01:40:49;8.45;;;5.32;;
75916;SDS011;64595;50.148;14.334;2023-04-25T01:43:16;16.02;;;6.68;;
75916;SDS011;64595;50.148;14.334;2023-04-25T01:45:41;7.75;;;4.55;;
75916;SDS011;64595;50.148;14.334;2023-04-25T01:48:07;7.65;;;4.65;;
75916;SDS011;64595;50.148;14.334;2023-04-25T01:50:32;7.70;;;4.15;;
75916;SDS011;64595;50.148;14.334;2023-04-25T01:52:58;8.13;;;4.53;;
75916;SDS011;64595;50.148;14.334;2023-04-25T01:55:25;8.40;;;5.25;;
75916;SDS011;64595;50.148;14.334;2023-04-25T01:57:50;8.55;;;4.35;;
75916;SDS011;64595;50.148;14.334;2023-04-25T02:00:16;6.65;;;4.22;;
75916;SDS011;64595;50.148;14.334;2023-04-25T02:02:42;14.57;;;7.88;;
75916;SDS011;64595;50.148;14.334;2023-04-25T02:05:08;12.52;;;4.95;;
75916;SDS011;64595;50.148;14.334;2023-04-25T02:07:34;8.75;;;5.82;;
75916;SDS011;64595;50.148;14.334;2023-04-25T02:09:59;8.85;;;5.13;;
75916;SDS011;64595;50.148;14.334;2023-04-25T02:12:26;10.85;;;6.00;;
75916;SDS011;64595;50.148;14.334;2023-04-25T02:14:52;7.32;;;4.82;;
75916;SDS011;64595;50.148;14.334;2023-04-25T02:17:17;7.07;;;4.35;;
75916;SDS011;64595;50.148;14.334;2023-04-25T02:19:43;8.95;;;4.75;;
75916;SDS011;64595;50.148;14.334;2023-04-25T02:22:09;9.50;;;5.20;;
75916;SDS011;64595;50.148;14.334;2023-04-25T02:24:34;7.40;;;5.00;;
75916;SDS011;64595;50.148;14.334;2023-04-25T02:27:00;7.65;;;4.35;;
75916;SDS011;64595;50.148;14.334;2023-04-25T02:29:27;7.97;;;5.03;;
75916;SDS011;64595;50.148;14.334;2023-04-25T02:31:52;9.65;;;4.75;;
75916;SDS011;64595;50.148;14.334;2023-04-25T02:34:18;9.48;;;5.18;;
75916;SDS011;64595;50.148;14.334;2023-04-25T02:36:43;10.65;;;5.97;;
75916;SDS011;64595;50.148;14.334;2023-04-25T02:39:09;10.85;;;6.15;;
75916;SDS011;64595;50.148;14.334;2023-04-25T02:41:34;12.50;;;8.27;;
75916;SDS011;64595;50.148;14.334;2023-04-25T02:44:00;19.80;;;13.60;;
75916;SDS011;64595;50.148;14.334;2023-04-25T02:46:26;25.80;;;16.73;;
75916;SDS011;64595;50.148;14.334;2023-04-25T02:48:52;27.17;;;18.13;;
75916;SDS011;64595;50.148;14.334;2023-04-25T02:51:17;27.33;;;17.48;;
75916;SDS011;64595;50.148;14.334;2023-04-25T02:53:43;21.58;;;14.48;;
75916;SDS011;64595;50.148;14.334;2023-04-25T02:56:08;12.68;;;9.32;;
75916;SDS011;64595;50.148;14.334;2023-04-25T02:58:34;11.55;;;7.18;;
75916;SDS011;64595;50.148;14.334;2023-04-25T03:00:59;10.07;;;6.40;;
75916;SDS011;64595;50.148;14.334;2023-04-25T03:03:26;12.35;;;6.22;;
75916;SDS011;64595;50.148;14.334;2023-04-25T03:05:52;9.13;;;5.93;;
75916;SDS011;64595;50.148;14.334;2023-04-25T03:08:17;11.43;;;6.05;;
75916;SDS011;64595;50.148;14.334;2023-04-25T03:10:43;8.52;;;5.72;;
75916;SDS011;64595;50.148;14.334;2023-04-25T03:13:09;10.30;;;6.15;;
75916;SDS011;64595;50.148;14.334;2023-04-25T03:15:34;12.02;;;5.72;;
75916;SDS011;64595;50.148;14.334;2023-04-25T03:18:00;12.30;;;6.05;;
75916;SDS011;64595;50.148;14.334;2023-04-25T03:20:27;12.43;;;6.15;;
75916;SDS011;64595;50.148;14.334;2023-04-25T03:22:52;12.23;;;7.75;;
75916;SDS011;64595;50.148;14.334;2023-04-25T03:25:18;12.90;;;7.68;;
75916;SDS011;64595;50.148;14.334;2023-04-25T03:27:44;16.27;;;9.57;;
75916;SDS011;64595;50.148;14.334;2023-04-25T03:30:09;17.58;;;9.43;;
75916;SDS011;64595;50.148;14.334;2023-04-25T03:32:35;13.55;;;9.40;;
75916;SDS011;64595;50.148;14.334;2023-04-25T03:35:01;17.65;;;12.48;;
75916;SDS011;64595;50.148;14.334;2023-04-25T03:37:27;9.32;;;6.32;;
75916;SDS011;64595;50.148;14.334;2023-04-25T03:39:53;9.85;;;6.05;;
75916;SDS011;64595;50.148;14.334;2023-04-25T03:42:18;10.65;;;6.40;;
75916;SDS011;64595;50.148;14.334;2023-04-25T03:44:44;10.65;;;6.53;;
75916;SDS011;64595;50.148;14.334;2023-04-25T03:47:09;13.77;;;7.03;;
75916;SDS011;64595;50.148;14.334;2023-04-25T03:49:35;11.05;;;5.38;;
75916;SDS011;64595;50.148;14.334;2023-04-25T03:52:00;9.35;;;5.70;;
75916;SDS011;64595;50.148;14.334;2023-04-25T03:54:27;11.63;;;5.90;;
75916;SDS011;64595;50.148;14.334;2023-04-25T03:56:53;10.95;;;7.57;;
75916;SDS011;64595;50.148;14.334;2023-04-25T03:59:18;12.50;;;7.85;;
75916;SDS011;64595;50.148;14.334;2023-04-25T04:01:44;11.82;;;6.97;;
75916;SDS011;64595;50.148;14.334;2023-04-25T04:04:09;10.77;;;7.00;;
75916;SDS011;64595;50.148;14.334;2023-04-25T04:06:35;9.85;;;5.95;;
75916;SDS011;64595;50.148;14.334;2023-04-25T04:09:00;9.13;;;6.07;;
75916;SDS011;64595;50.148;14.334;2023-04-25T04:11:27;9.95;;;6.40;;
75916;SDS011;64595;50.148;14.334;2023-04-25T04:13:53;9.38;;;6.55;;
75916;SDS011;64595;50.148;14.334;2023-04-25T04:16:18;11.23;;;6.88;;
75916;SDS011;64595;50.148;14.334;2023-04-25T04:18:44;8.38;;;6.22;;
75916;SDS011;64595;50.148;14.334;2023-04-25T04:21:10;10.77;;;6.00;;
75916;SDS011;64595;50.148;14.334;2023-04-25T04:23:36;10.13;;;6.47;;
75916;SDS011;64595;50.148;14.334;2023-04-25T04:26:01;10.05;;;6.25;;
75916;SDS011;64595;50.148;14.334;2023-04-25T04:28:28;9.43;;;6.75;;
75916;SDS011;64595;50.148;14.334;2023-04-25T04:30:53;12.13;;;6.05;;
75916;SDS011;64595;50.148;14.334;2023-04-25T04:33:19;11.13;;;6.57;;
75916;SDS011;64595;50.148;14.334;2023-04-25T04:35:45;9.45;;;6.13;;
75916;SDS011;64595;50.148;14.334;2023-04-25T04:38:10;13.43;;;5.53;;
75916;SDS011;64595;50.148;14.334;2023-04-25T04:40:36;9.85;;;5.47;;
75916;SDS011;64595;50.148;14.334;2023-04-25T04:43:01;11.07;;;6.32;;
75916;SDS011;64595;50.148;14.334;2023-04-25T04:45:28;14.07;;;5.93;;
75916;SDS011;64595;50.148;14.334;2023-04-25T04:47:54;10.93;;;6.05;;
75916;SDS011;64595;50.148;14.334;2023-04-25T04:50:19;8.13;;;5.70;;
75916;SDS011;64595;50.148;14.334;2023-04-25T04:52:45;8.52;;;6.65;;
75916;SDS011;64595;50.148;14.334;2023-04-25T04:55:10;10.52;;;6.03;;
75916;SDS011;64595;50.148;14.334;2023-04-25T04:57:36;8.50;;;5.22;;
75916;SDS011;64595;50.148;14.334;2023-04-25T05:00:01;11.55;;;6.07;;
75916;SDS011;64595;50.148;14.334;2023-04-25T05:02:28;9.80;;;5.70;;
75916;SDS011;64595;50.148;14.334;2023-04-25T05:04:55;9.90;;;5.55;;
75916;SDS011;64595;50.148;14.334;2023-04-25T05:07:21;8.57;;;5.75;;
75916;SDS011;64595;50.148;14.334;2023-04-25T05:09:46;10.98;;;6.10;;
75916;SDS011;64595;50.148;14.334;2023-04-25T05:12:12;8.38;;;5.63;;
75916;SDS011;64595;50.148;14.334;2023-04-25T05:14:37;9.50;;;5.60;;
75916;SDS011;64595;50.148;14.334;2023-04-25T05:17:03;7.32;;;5.47;;
75916;SDS011;64595;50.148;14.334;2023-04-25T05:19:30;8.43;;;6.10;;
75916;SDS011;64595;50.148;14.334;2023-04-25T05:21:55;11.88;;;6.57;;
75916;SDS011;64595;50.148;14.334;2023-04-25T05:24:21;12.50;;;6.35;;
75916;SDS011;64595;50.148;14.334;2023-04-25T05:26:46;9.15;;;5.85;;
75916;SDS011;64595;50.148;14.334;2023-04-25T05:29:12;10.05;;;6.05;;
75916;SDS011;64595;50.148;14.334;2023-04-25T05:31:37;9.80;;;6.03;;
75916;SDS011;64595;50.148;14.334;2023-04-25T05:34:03;10.65;;;6.10;;
75916;SDS011;64595;50.148;14.334;2023-04-25T05:36:30;8.27;;;5.80;;
75916;SDS011;64595;50.148;14.334;2023-04-25T05:41:21;10.47;;;5.50;;
75916;SDS011;64595;50.148;14.334;2023-04-25T05:43:47;8.93;;;5.75;;
75916;SDS011;64595;50.148;14.334;2023-04-25T05:46:12;8.63;;;6.53;;
75916;SDS011;64595;50.148;14.334;2023-04-25T05:48:38;9.50;;;5.78;;
75916;SDS011;64595;50.148;14.334;2023-04-25T05:51:04;8.40;;;5.82;;
75916;SDS011;64595;50.148;14.334;2023-04-25T05:53:31;9.20;;;5.13;;
75916;SDS011;64595;50.148;14.334;2023-04-25T05:55:56;8.15;;;5.25;;
75916;SDS011;64595;50.148;14.334;2023-04-25T05:58:22;8.27;;;5.90;;
75916;SDS011;64595;50.148;14.334;2023-04-25T06:00:47;9.13;;;5.35;;
75916;SDS011;64595;50.148;14.334;2023-04-25T06:03:13;8.15;;;5.57;;
75916;SDS011;64595;50.148;14.334;2023-04-25T06:05:38;13.43;;;5.68;;
75916;SDS011;64595;50.148;14.334;2023-04-25T06:08:04;8.98;;;6.13;;
75916;SDS011;64595;50.148;14.334;2023-04-25T06:10:31;10.05;;;5.28;;
75916;SDS011;64595;50.148;14.334;2023-04-25T06:12:56;8.10;;;5.85;;
75916;SDS011;64595;50.148;14.334;2023-04-25T06:15:22;9.45;;;5.72;;
75916;SDS011;64595;50.148;14.334;2023-04-25T06:17:47;9.77;;;5.82;;
75916;SDS011;64595;50.148;14.334;2023-04-25T06:20:13;9.20;;;5.40;;
75916;SDS011;64595;50.148;14.334;2023-04-25T06:22:38;8.73;;;6.28;;
75916;SDS011;64595;50.148;14.334;2023-04-25T06:25:04;10.18;;;5.82;;
75916;SDS011;64595;50.148;14.334;2023-04-25T06:27:32;10.68;;;5.82;;
75916;SDS011;64595;50.148;14.334;2023-04-25T06:29:57;11.30;;;7.68;;
75916;SDS011;64595;50.148;14.334;2023-04-25T06:32:23;10.65;;;6.80;;
75916;SDS011;64595;50.148;14.334;2023-04-25T06:34:48;10.45;;;6.57;;
75916;SDS011;64595;50.148;14.334;2023-04-25T06:37:14;11.07;;;7.32;;
75916;SDS011;64595;50.148;14.334;2023-04-25T06:39:39;9.05;;;6.50;;
75916;SDS011;64595;50.148;14.334;2023-04-25T06:42:04;12.15;;;7.05;;
75916;SDS011;64595;50.148;14.334;2023-04-25T06:44:31;10.75;;;6.32;;
75916;SDS011;64595;50.148;14.334;2023-04-25T06:46:57;11.18;;;6.55;;
75916;SDS011;64595;50.148;14.334;2023-04-25T06:49:22;10.43;;;6.43;;
75916;SDS011;64595;50.148;14.334;2023-04-25T06:51:48;12.68;;;6.38;;
75916;SDS011;64595;50.148;14.334;2023-04-25T06:54:13;13.10;;;7.13;;
75916;SDS011;64595;50.148;14.334;2023-04-25T06:56:39;9.93;;;5.55;;
75916;SDS011;64595;50.148;14.334;2023-04-25T06:59:04;9.88;;;7.10;;
75916;SDS011;64595;50.148;14.334;2023-04-25T07:01:31;9.65;;;5.85;;
75916;SDS011;64595;50.148;14.334;2023-04-25T07:03:57;10.05;;;6.45;;
75916;SDS011;64595;50.148;14.334;2023-04-25T07:06:22;7.55;;;5.40;;
75916;SDS011;64595;50.148;14.334;2023-04-25T07:08:48;10.07;;;6.53;;
75916;SDS011;64595;50.148;14.334;2023-04-25T07:11:13;10.15;;;6.93;;
75916;SDS011;64595;50.148;14.334;2023-04-25T07:13:39;8.77;;;6.28;;
75916;SDS011;64595;50.148;14.334;2023-04-25T07:16:04;12.65;;;7.88;;
75916;SDS011;64595;50.148;14.334;2023-04-25T07:18:32;11.13;;;6.65;;
75916;SDS011;64595;50.148;14.334;2023-04-25T07:20:57;11.90;;;6.47;;
75916;SDS011;64595;50.148;14.334;2023-04-25T07:23:22;11.48;;;6.35;;
75916;SDS011;64595;50.148;14.334;2023-04-25T07:25:48;7.82;;;5.15;;
75916;SDS011;64595;50.148;14.334;2023-04-25T07:28:13;7.55;;;5.15;;
75916;SDS011;64595;50.148;14.334;2023-04-25T07:30:39;9.23;;;6.10;;
75916;SDS011;64595;50.148;14.334;2023-04-25T07:33:11;7.30;;;5.30;;
75916;SDS011;64595;50.148;14.334;2023-04-25T07:35:38;8.60;;;5.97;;
75916;SDS011;64595;50.148;14.334;2023-04-25T07:38:03;9.75;;;6.03;;
75916;SDS011;64595;50.148;14.334;2023-04-25T07:40:29;10.23;;;6.18;;
75916;SDS011;64595;50.148;14.334;2023-04-25T07:42:54;7.88;;;5.10;;
75916;SDS011;64595;50.148;14.334;2023-04-25T07:45:20;10.68;;;5.78;;
75916;SDS011;64595;50.148;14.334;2023-04-25T07:47:45;10.52;;;5.80;;
75916;SDS011;64595;50.148;14.334;2023-04-25T07:50:11;7.90;;;5.15;;
75916;SDS011;64595;50.148;14.334;2023-04-25T07:52:38;9.65;;;5.70;;
75916;SDS011;64595;50.148;14.334;2023-04-25T07:55:04;9.60;;;5.25;;
75916;SDS011;64595;50.148;14.334;2023-04-25T07:57:30;8.95;;;5.78;;
75916;SDS011;64595;50.148;14.334;2023-04-25T07:59:55;8.00;;;5.25;;
75916;SDS011;64595;50.148;14.334;2023-04-25T08:02:21;8.73;;;5.65;;
75916;SDS011;64595;50.148;14.334;2023-04-25T08:04:46;7.25;;;5.03;;
75916;SDS011;64595;50.148;14.334;2023-04-25T08:07:12;7.75;;;5.10;;
75916;SDS011;64595;50.148;14.334;2023-04-25T08:09:38;7.65;;;5.35;;
75916;SDS011;64595;50.148;14.334;2023-04-25T08:12:04;8.43;;;5.70;;
75916;SDS011;64595;50.148;14.334;2023-04-25T08:14:30;9.68;;;6.22;;
75916;SDS011;64595;50.148;14.334;2023-04-25T08:16:55;8.80;;;5.60;;
75916;SDS011;64595;50.148;14.334;2023-04-25T08:19:21;7.13;;;5.32;;
75916;SDS011;64595;50.148;14.334;2023-04-25T08:21:46;6.50;;;5.00;;
75916;SDS011;64595;50.148;14.334;2023-04-25T08:24:12;6.95;;;5.25;;
75916;SDS011;64595;50.148;14.334;2023-04-25T08:26:38;7.57;;;5.22;;
75916;SDS011;64595;50.148;14.334;2023-04-25T08:29:04;7.75;;;5.53;;
75916;SDS011;64595;50.148;14.334;2023-04-25T08:31:29;7.10;;;5.15;;
75916;SDS011;64595;50.148;14.334;2023-04-25T08:33:55;11.27;;;5.50;;
75916;SDS011;64595;50.148;14.334;2023-04-25T08:36:21;8.40;;;5.72;;
75916;SDS011;64595;50.148;14.334;2023-04-25T08:38:46;7.13;;;5.20;;
75916;SDS011;64595;50.148;14.334;2023-04-25T08:41:11;7.88;;;5.53;;
75916;SDS011;64595;50.148;14.334;2023-04-25T08:43:44;8.07;;;4.97;;
75916;SDS011;64595;50.148;14.334;2023-04-25T08:46:13;12.35;;;5.25;;
75916;SDS011;64595;50.148;14.334;2023-04-25T08:48:46;7.38;;;4.93;;
75916;SDS011;64595;50.148;14.334;2023-04-25T08:51:15;6.72;;;4.35;;
75916;SDS011;64595;50.148;14.334;2023-04-25T08:53:48;7.93;;;4.90;;
75916;SDS011;64595;50.148;14.334;2023-04-25T08:56:17;7.35;;;4.65;;
75916;SDS011;64595;50.148;14.334;2023-04-25T08:58:44;10.50;;;5.13;;
75916;SDS011;64595;50.148;14.334;2023-04-25T09:01:10;9.43;;;6.13;;
75916;SDS011;64595;50.148;14.334;2023-04-25T09:03:36;12.73;;;6.50;;
75916;SDS011;64595;50.148;14.334;2023-04-25T09:06:04;15.13;;;7.38;;
75916;SDS011;64595;50.148;14.334;2023-04-25T09:08:33;15.13;;;8.82;;
75916;SDS011;64595;50.148;14.334;2023-04-25T09:11:03;12.48;;;7.15;;
75916;SDS011;64595;50.148;14.334;2023-04-25T09:13:29;9.75;;;6.65;;
75916;SDS011;64595;50.148;14.334;2023-04-25T09:15:57;10.38;;;7.55;;
75916;SDS011;64595;50.148;14.334;2023-04-25T09:18:23;13.32;;;7.50;;
75916;SDS011;64595;50.148;14.334;2023-04-25T09:20:50;10.80;;;6.90;;
75916;SDS011;64595;50.148;14.334;2023-04-25T09:23:18;9.73;;;7.32;;
75916;SDS011;64595;50.148;14.334;2023-04-25T09:25:44;11.70;;;7.28;;
75916;SDS011;64595;50.148;14.334;2023-04-25T09:28:12;11.27;;;8.68;;
75916;SDS011;64595;50.148;14.334;2023-04-25T09:30:37;12.70;;;7.70;;
75916;SDS011;64595;50.148;14.334;2023-04-25T09:33:05;12.23;;;7.85;;
75916;SDS011;64595;50.148;14.334;2023-04-25T09:35:34;14.63;;;7.97;;
75916;SDS011;64595;50.148;14.334;2023-04-25T09:38:00;14.13;;;8.20;;
75916;SDS011;64595;50.148;14.334;2023-04-25T09:40:26;15.93;;;9.32;;
75916;SDS011;64595;50.148;14.334;2023-04-25T09:42:59;18.67;;;10.20;;
75916;SDS011;64595;50.148;14.334;2023-04-25T09:45:24;19.17;;;10.77;;
75916;SDS011;64595;50.148;14.334;2023-04-25T09:47:50;25.85;;;12.43;;
75916;SDS011;64595;50.148;14.334;2023-04-25T09:50:17;18.75;;;11.23;;
75916;SDS011;64595;50.148;14.334;2023-04-25T09:52:42;21.88;;;12.02;;
75916;SDS011;64595;50.148;14.334;2023-04-25T09:55:08;18.05;;;10.45;;
75916;SDS011;64595;50.148;14.334;2023-04-25T09:57:34;22.40;;;12.07;;
75916;SDS011;64595;50.148;14.334;2023-04-25T10:00:00;21.15;;;12.48;;
75916;SDS011;64595;50.148;14.334;2023-04-25T10:02:26;13.10;;;7.65;;
75916;SDS011;64595;50.148;14.334;2023-04-25T10:04:52;16.52;;;10.70;;
75916;SDS011;64595;50.148;14.334;2023-04-25T10:07:20;20.30;;;11.77;;
75916;SDS011;64595;50.148;14.334;2023-04-25T10:09:48;16.20;;;10.40;;
75916;SDS011;64595;50.148;14.334;2023-04-25T10:12:14;15.32;;;9.32;;
75916;SDS011;64595;50.148;14.334;2023-04-25T10:14:39;11.43;;;7.93;;
75916;SDS011;64595;50.148;14.334;2023-04-25T10:17:05;12.10;;;7.43;;
75916;SDS011;64595;50.148;14.334;2023-04-25T10:19:31;9.55;;;6.97;;
75916;SDS011;64595;50.148;14.334;2023-04-25T10:21:58;8.57;;;6.13;;
75916;SDS011;64595;50.148;14.334;2023-04-25T10:24:30;9.70;;;6.65;;
75916;SDS011;64595;50.148;14.334;2023-04-25T10:26:55;9.70;;;6.72;;
75916;SDS011;64595;50.148;14.334;2023-04-25T10:29:22;9.55;;;6.55;;
75916;SDS011;64595;50.148;14.334;2023-04-25T10:31:48;8.75;;;6.38;;
75916;SDS011;64595;50.148;14.334;2023-04-25T10:34:14;7.72;;;5.60;;
75916;SDS011;64595;50.148;14.334;2023-04-25T10:36:40;9.52;;;6.32;;
75916;SDS011;64595;50.148;14.334;2023-04-25T10:39:06;7.35;;;5.82;;
75916;SDS011;64595;50.148;14.334;2023-04-25T10:41:33;8.48;;;6.28;;
75916;SDS011;64595;50.148;14.334;2023-04-25T10:44:10;9.10;;;6.03;;
75916;SDS011;64595;50.148;14.334;2023-04-25T10:46:36;11.52;;;7.95;;
75916;SDS011;64595;50.148;14.334;2023-04-25T10:49:02;10.82;;;7.53;;
75916;SDS011;64595;50.148;14.334;2023-04-25T10:51:28;10.57;;;7.72;;
75916;SDS011;64595;50.148;14.334;2023-04-25T10:53:58;9.68;;;7.57;;
75916;SDS011;64595;50.148;14.334;2023-04-25T10:56:25;9.35;;;6.45;;
75916;SDS011;64595;50.148;14.334;2023-04-25T10:58:53;9.32;;;7.55;;
75916;SDS011;64595;50.148;14.334;2023-04-25T11:01:28;8.90;;;6.57;;
75916;SDS011;64595;50.148;14.334;2023-04-25T11:04:01;10.02;;;6.93;;
75916;SDS011;64595;50.148;14.334;2023-04-25T11:06:29;9.85;;;7.10;;
75916;SDS011;64595;50.148;14.334;2023-04-25T11:09:00;11.55;;;7.57;;
75916;SDS011;64595;50.148;14.334;2023-04-25T11:11:26;8.82;;;6.55;;
75916;SDS011;64595;50.148;14.334;2023-04-25T11:13:53;9.75;;;6.03;;
75916;SDS011;64595;50.148;14.334;2023-04-25T11:16:18;9.80;;;7.18;;
75916;SDS011;64595;50.148;14.334;2023-04-25T11:18:44;7.40;;;6.25;;
75916;SDS011;64595;50.148;14.334;2023-04-25T11:21:09;10.50;;;5.50;;
75916;SDS011;64595;50.148;14.334;2023-04-25T11:23:35;6.15;;;3.85;;
75916;SDS011;64595;50.148;14.334;2023-04-25T11:26:00;5.70;;;3.65;;
75916;SDS011;64595;50.148;14.334;2023-04-25T11:28:26;5.60;;;4.22;;
75916;SDS011;64595;50.148;14.334;2023-04-25T11:30:53;5.65;;;4.47;;
75916;SDS011;64595;50.148;14.334;2023-04-25T11:33:22;6.43;;;3.97;;
75916;SDS011;64595;50.148;14.334;2023-04-25T11:35:48;4.82;;;3.72;;
75916;SDS011;64595;50.148;14.334;2023-04-25T11:38:14;5.75;;;4.00;;
75916;SDS011;64595;50.148;14.334;2023-04-25T11:40:39;5.25;;;3.65;;
75916;SDS011;64595;50.148;14.334;2023-04-25T11:43:05;6.47;;;4.80;;
75916;SDS011;64595;50.148;14.334;2023-04-25T11:45:31;6.93;;;4.95;;
75916;SDS011;64595;50.148;14.334;2023-04-25T11:47:57;6.50;;;4.65;;
75916;SDS011;64595;50.148;14.334;2023-04-25T11:50:23;6.35;;;4.97;;
75916;SDS011;64595;50.148;14.334;2023-04-25T11:52:49;7.38;;;5.57;;
75916;SDS011;64595;50.148;14.334;2023-04-25T11:55:15;6.38;;;4.20;;
75916;SDS011;64595;50.148;14.334;2023-04-25T11:57:42;5.30;;;4.45;;
75916;SDS011;64595;50.148;14.334;2023-04-25T12:00:09;6.70;;;4.30;;
75916;SDS011;64595;50.148;14.334;2023-04-25T12:02:35;6.88;;;4.72;;
75916;SDS011;64595;50.148;14.334;2023-04-25T12:05:02;5.88;;;3.65;;
75916;SDS011;64595;50.148;14.334;2023-04-25T12:07:31;6.25;;;3.83;;
75916;SDS011;64595;50.148;14.334;2023-04-25T12:09:56;5.43;;;4.13;;
75916;SDS011;64595;50.148;14.334;2023-04-25T12:12:23;6.05;;;4.35;;
75916;SDS011;64595;50.148;14.334;2023-04-25T12:14:52;6.53;;;3.88;;
75916;SDS011;64595;50.148;14.334;2023-04-25T12:17:17;6.15;;;3.78;;
75916;SDS011;64595;50.148;14.334;2023-04-25T12:19:43;5.22;;;3.75;;
75916;SDS011;64595;50.148;14.334;2023-04-25T12:22:20;6.40;;;4.20;;
75916;SDS011;64595;50.148;14.334;2023-04-25T12:24:46;16.92;;;8.93;;
75916;SDS011;64595;50.148;14.334;2023-04-25T12:27:13;7.65;;;4.88;;
75916;SDS011;64595;50.148;14.334;2023-04-25T12:29:39;11.00;;;7.05;;
75916;SDS011;64595;50.148;14.334;2023-04-25T12:32:05;7.47;;;4.40;;
75916;SDS011;64595;50.148;14.334;2023-04-25T12:34:31;7.53;;;3.85;;
75916;SDS011;64595;50.148;14.334;2023-04-25T12:36:57;8.77;;;4.40;;
75916;SDS011;64595;50.148;14.334;2023-04-25T12:39:24;6.03;;;4.00;;
75916;SDS011;64595;50.148;14.334;2023-04-25T12:41:50;14.80;;;4.05;;
75916;SDS011;64595;50.148;14.334;2023-04-25T12:44:15;5.85;;;3.90;;
75916;SDS011;64595;50.148;14.334;2023-04-25T12:46:41;6.88;;;4.15;;
75916;SDS011;64595;50.148;14.334;2023-04-25T12:49:07;6.88;;;4.40;;
75916;SDS011;64595;50.148;14.334;2023-04-25T12:51:32;4.75;;;3.55;;
75916;SDS011;64595;50.148;14.334;2023-04-25T12:53:58;9.07;;;6.05;;
75916;SDS011;64595;50.148;14.334;2023-04-25T12:56:25;7.03;;;4.13;;
75916;SDS011;64595;50.148;14.334;2023-04-25T12:58:50;8.85;;;4.03;;
75916;SDS011;64595;50.148;14.334;2023-04-25T13:01:16;6.78;;;3.88;;
75916;SDS011;64595;50.148;14.334;2023-04-25T13:03:41;7.13;;;4.55;;
75916;SDS011;64595;50.148;14.334;2023-04-25T13:06:07;6.07;;;4.45;;
75916;SDS011;64595;50.148;14.334;2023-04-25T13:08:32;7.50;;;4.53;;
75916;SDS011;64595;50.148;14.334;2023-04-25T13:10:58;7.05;;;3.85;;
75916;SDS011;64595;50.148;14.334;2023-04-25T13:13:25;5.78;;;3.97;;
75916;SDS011;64595;50.148;14.334;2023-04-25T13:15:50;6.05;;;3.50;;
75916;SDS011;64595;50.148;14.334;2023-04-25T13:18:16;8.60;;;3.70;;
75916;SDS011;64595;50.148;14.334;2023-04-25T13:20:41;10.23;;;4.45;;
75916;SDS011;64595;50.148;14.334;2023-04-25T13:23:06;8.13;;;4.20;;
75916;SDS011;64595;50.148;14.334;2023-04-25T13:25:32;5.68;;;3.80;;
75916;SDS011;64595;50.148;14.334;2023-04-25T13:27:57;6.72;;;3.78;;
75916;SDS011;64595;50.148;14.334;2023-04-25T13:30:24;6.78;;;3.75;;
75916;SDS011;64595;50.148;14.334;2023-04-25T13:32:50;7.10;;;3.83;;
75916;SDS011;64595;50.148;14.334;2023-04-25T13:35:16;4.60;;;3.50;;
75916;SDS011;64595;50.148;14.334;2023-04-25T13:37:41;4.65;;;3.20;;
75916;SDS011;64595;50.148;14.334;2023-04-25T13:40:08;5.68;;;3.47;;
75916;SDS011;64595;50.148;14.334;2023-04-25T13:42:34;7.47;;;3.17;;
75916;SDS011;64595;50.148;14.334;2023-04-25T13:44:59;5.68;;;3.53;;
75916;SDS011;64595;50.148;14.334;2023-04-25T13:47:26;5.15;;;2.90;;
75916;SDS011;64595;50.148;14.334;2023-04-25T13:49:52;13.65;;;3.95;;
75916;SDS011;64595;50.148;14.334;2023-04-25T13:52:17;8.30;;;3.83;;
75916;SDS011;64595;50.148;14.334;2023-04-25T13:54:43;7.25;;;4.10;;
75916;SDS011;64595;50.148;14.334;2023-04-25T13:57:08;7.25;;;4.05;;
75916;SDS011;64595;50.148;14.334;2023-04-25T13:59:34;5.72;;;3.35;;
75916;SDS011;64595;50.148;14.334;2023-04-25T14:02:00;6.65;;;3.40;;
75916;SDS011;64595;50.148;14.334;2023-04-25T14:04:27;5.30;;;3.22;;
75916;SDS011;64595;50.148;14.334;2023-04-25T14:06:52;7.78;;;3.53;;
75916;SDS011;64595;50.148;14.334;2023-04-25T14:09:18;5.03;;;3.00;;
75916;SDS011;64595;50.148;14.334;2023-04-25T14:11:44;5.15;;;2.75;;
75916;SDS011;64595;50.148;14.334;2023-04-25T14:14:09;4.55;;;2.67;;
75916;SDS011;64595;50.148;14.334;2023-04-25T14:16:34;5.90;;;3.10;;
75916;SDS011;64595;50.148;14.334;2023-04-25T14:19:00;4.15;;;2.90;;
75916;SDS011;64595;50.148;14.334;2023-04-25T14:21:27;4.82;;;3.28;;
75916;SDS011;64595;50.148;14.334;2023-04-25T14:23:52;4.82;;;3.08;;